Time;durP1;ratioP1;P1;durP2;ratioP2;P2;SDS_P1;SDS_P2;PMS_P1;PMS_P2;Temp;Humidity;BMP_temperature;BMP_pressure;BME280_temperature;BME280_humidity;BME280_pressure;Samples;Min_cycle;Max_cycle;Signal;HPM_P1;HPM_P2
2023/04/21 00:02:18;;;;;;;15.87;8.80;;;12.30;1.00;;;;;;4991857;28;20427;-82
2023/04/21 00:04:45;;;;;;;18.13;9.50;;;12.20;1.00;;;;;;4993414;28;20453;-81
2023/04/21 00:07:15;;;;;;;15.23;8.50;;;12.30;1.00;;;;;;4988767;28;20539;-81
2023/04/21 00:09:43;;;;;;;13.90;8.50;;;12.20;1.00;;;;;;4995508;28;20454;-82
2023/04/21 00:12:10;;;;;;;12.63;8.47;;;12.20;1.00;;;;;;4990550;28;20490;-82
2023/04/21 00:14:38;;;;;;;14.63;9.20;;;12.20;1.00;;;;;;4990522;28;20492;-82
2023/04/21 00:17:07;;;;;;;17.87;9.10;;;12.10;1.00;;;;;;5014700;28;20468;-82
2023/04/21 00:19:34;;;;;;;19.17;9.00;;;12.10;1.00;;;;;;5032762;28;20436;-81
2023/04/21 00:22:03;;;;;;;17.70;8.90;;;12.10;1.00;;;;;;5016082;28;20526;-83
2023/04/21 00:24:31;;;;;;;15.53;9.33;;;12.00;1.00;;;;;;5033229;28;20489;-82
2023/04/21 00:26:58;;;;;;;15.00;8.93;;;12.00;1.00;;;;;;5031184;28;20550;-82
2023/04/21 00:29:25;;;;;;;20.00;9.10;;;11.90;1.00;;;;;;5033786;28;20428;-83
2023/04/21 00:31:52;;;;;;;15.53;9.00;;;11.90;1.00;;;;;;5021383;28;20423;-83
2023/04/21 00:34:19;;;;;;;19.27;9.20;;;11.90;1.00;;;;;;5041270;28;20485;-85
2023/04/21 00:36:47;;;;;;;14.50;9.20;;;11.90;1.00;;;;;;5038290;28;20567;-82
2023/04/21 00:39:14;;;;;;;13.50;8.90;;;11.90;1.00;;;;;;5025951;28;20454;-84
2023/04/21 00:41:45;;;;;;;14.30;9.00;;;11.90;1.00;;;;;;5033611;28;21426;-86
2023/04/21 00:44:12;;;;;;;13.33;8.30;;;11.90;1.00;;;;;;5043636;28;20640;-84
2023/04/21 00:46:41;;;;;;;18.93;10.20;;;11.80;1.00;;;;;;5031955;28;20554;-84
2023/04/21 00:49:08;;;;;;;16.67;9.10;;;11.80;1.00;;;;;;5038927;28;20514;-83
2023/04/21 00:51:36;;;;;;;15.53;9.20;;;11.80;1.00;;;;;;5043933;28;20554;-83
2023/04/21 00:54:06;;;;;;;13.10;9.10;;;11.80;1.00;;;;;;5038442;28;20475;-83
2023/04/21 00:56:35;;;;;;;14.00;8.90;;;11.70;1.00;;;;;;5035128;28;20440;-83
2023/04/21 00:59:03;;;;;;;19.20;10.13;;;11.70;1.00;;;;;;5035099;28;20531;-85
2023/04/21 01:01:33;;;;;;;20.77;10.27;;;11.70;1.00;;;;;;5032197;28;20717;-83
2023/04/21 01:04:01;;;;;;;13.33;10.57;;;11.60;1.00;;;;;;5025599;23;20471;-82
2023/04/21 01:06:31;;;;;;;13.90;10.13;;;11.60;1.00;;;;;;4999433;28;20475;-82
2023/04/21 01:08:58;;;;;;;16.00;9.90;;;11.50;1.00;;;;;;4997711;28;20452;-82
2023/04/21 01:11:25;;;;;;;14.27;9.57;;;11.50;1.00;;;;;;5000485;28;20461;-83
2023/04/21 01:13:53;;;;;;;18.37;10.83;;;11.50;1.00;;;;;;5003094;28;20438;-82
2023/04/21 01:16:23;;;;;;;16.17;11.60;;;11.40;1.00;;;;;;5002234;28;20474;-82
2023/04/21 01:18:50;;;;;;;13.10;10.47;;;11.40;1.00;;;;;;4996187;28;20459;-83
2023/04/21 01:21:19;;;;;;;15.67;10.60;;;11.40;1.00;;;;;;4996268;28;20539;-82
2023/04/21 01:23:48;;;;;;;16.53;12.17;;;11.40;1.00;;;;;;4994848;28;20507;-83
2023/04/21 01:26:21;;;;;;;16.57;11.70;;;11.40;1.00;;;;;;4996195;28;20447;-83
2023/04/21 01:28:49;;;;;;;20.00;11.07;;;11.40;1.00;;;;;;4980014;28;20436;-82
2023/04/21 01:31:19;;;;;;;20.27;11.60;;;11.40;1.00;;;;;;4999429;28;21013;-81
2023/04/21 01:33:47;;;;;;;14.67;10.60;;;11.30;1.00;;;;;;4996654;28;20571;-82
2023/04/21 01:36:14;;;;;;;18.30;11.30;;;11.30;1.00;;;;;;5000643;28;20502;-81
2023/04/21 01:38:44;;;;;;;17.27;11.83;;;11.40;1.00;;;;;;4996686;28;20559;-83
2023/04/21 01:41:12;;;;;;;14.57;10.67;;;11.30;1.00;;;;;;4998309;28;20448;-82
2023/04/21 01:43:39;;;;;;;17.17;10.93;;;11.30;1.00;;;;;;4999136;28;20487;-82
2023/04/21 01:46:09;;;;;;;18.40;11.97;;;11.20;1.00;;;;;;4997988;28;20462;-81
2023/04/21 01:48:37;;;;;;;16.87;12.63;;;11.20;1.00;;;;;;4994285;28;20455;-82
2023/04/21 01:51:04;;;;;;;14.77;12.30;;;11.20;1.00;;;;;;4993699;28;20479;-83
2023/04/21 01:53:32;;;;;;;21.20;14.10;;;11.20;1.00;;;;;;4998297;28;20519;-82
2023/04/21 01:55:59;;;;;;;16.83;10.70;;;11.10;1.00;;;;;;4984646;28;20456;-81
2023/04/21 01:58:27;;;;;;;16.73;11.97;;;11.20;1.00;;;;;;4994350;28;20495;-81
2023/04/21 02:00:54;;;;;;;16.23;12.27;;;11.10;1.00;;;;;;4994618;28;20542;-84
2023/04/21 02:03:22;;;;;;;20.23;11.43;;;11.10;1.00;;;;;;4995300;28;20547;-82
2023/04/21 02:05:51;;;;;;;14.80;11.93;;;11.10;1.00;;;;;;5011629;28;20450;-82
2023/04/21 02:08:19;;;;;;;15.90;11.67;;;11.10;1.00;;;;;;5008537;28;20464;-81
2023/04/21 02:10:48;;;;;;;16.53;13.17;;;11.00;1.00;;;;;;5009532;28;20847;-82
2023/04/21 02:13:16;;;;;;;16.33;12.47;;;11.00;1.00;;;;;;5008958;28;20459;-82
2023/04/21 02:15:47;;;;;;;17.47;12.00;;;11.00;1.00;;;;;;5010948;28;20435;-81
2023/04/21 02:18:15;;;;;;;18.97;12.60;;;11.00;1.00;;;;;;4994107;28;20546;-82
2023/04/21 02:20:42;;;;;;;15.50;11.70;;;11.00;1.00;;;;;;4992968;28;20836;-81
2023/04/21 02:23:13;;;;;;;16.40;11.67;;;11.00;1.00;;;;;;5013941;28;20487;-82
2023/04/21 02:25:43;;;;;;;16.30;11.63;;;11.00;1.00;;;;;;5012693;28;20435;-82
2023/04/21 02:28:10;;;;;;;15.20;12.57;;;11.00;1.00;;;;;;5009071;28;21636;-82
2023/04/21 02:30:38;;;;;;;15.90;12.27;;;10.90;1.00;;;;;;5009367;28;21017;-82
2023/04/21 02:33:06;;;;;;;14.30;11.80;;;10.90;1.00;;;;;;5009200;28;20476;-82
2023/04/21 02:35:33;;;;;;;17.30;12.10;;;10.90;1.00;;;;;;5009596;28;21008;-82
2023/04/21 02:38:06;;;;;;;17.70;12.90;;;10.90;1.00;;;;;;5012273;28;20443;-83
2023/04/21 02:40:33;;;;;;;18.73;13.27;;;10.80;1.00;;;;;;5013789;28;20463;-82
2023/04/21 02:43:03;;;;;;;16.03;12.67;;;10.90;1.00;;;;;;5011874;28;20513;-82
2023/04/21 02:45:30;;;;;;;17.87;12.30;;;10.90;1.00;;;;;;5011573;28;20470;-82
2023/04/21 02:47:58;;;;;;;15.07;11.80;;;10.80;1.00;;;;;;5011595;28;20470;-80
2023/04/21 02:50:29;;;;;;;15.50;11.90;;;10.80;1.00;;;;;;5013959;28;20485;-82
2023/04/21 02:52:56;;;;;;;17.13;13.30;;;10.80;1.00;;;;;;5011468;28;20470;-82
2023/04/21 02:55:24;;;;;;;15.17;11.73;;;10.80;1.00;;;;;;5013541;28;21227;-82
2023/04/21 02:57:53;;;;;;;15.40;12.40;;;10.70;1.00;;;;;;5013985;28;20569;-83
2023/04/21 03:00:21;;;;;;;19.10;14.00;;;10.70;1.00;;;;;;5010203;28;20490;-82
2023/04/21 03:02:48;;;;;;;19.70;13.27;;;10.70;1.00;;;;;;5011518;28;20510;-82
2023/04/21 03:05:16;;;;;;;16.77;13.37;;;10.70;1.00;;;;;;5013598;28;20435;-82
2023/04/21 03:07:45;;;;;;;17.80;13.40;;;10.70;1.00;;;;;;5015199;28;21249;-82
2023/04/21 03:10:13;;;;;;;17.33;12.90;;;10.70;1.00;;;;;;5012825;28;20505;-82
2023/04/21 03:12:43;;;;;;;17.77;12.20;;;10.60;1.00;;;;;;5013095;28;20507;-82
2023/04/21 03:15:13;;;;;;;16.87;13.67;;;10.60;1.00;;;;;;5013090;28;20581;-83
2023/04/21 03:17:40;;;;;;;16.37;14.13;;;10.60;1.00;;;;;;5014192;28;20529;-83
2023/04/21 03:20:08;;;;;;;14.30;12.80;;;10.60;1.00;;;;;;5011316;28;21207;-82
2023/04/21 03:22:35;;;;;;;14.60;13.10;;;10.60;1.00;;;;;;5013760;28;20681;-82
2023/04/21 03:25:04;;;;;;;15.13;12.90;;;10.60;1.00;;;;;;5013118;28;20542;-82
2023/04/21 03:27:32;;;;;;;15.87;13.10;;;10.60;1.00;;;;;;5012483;28;21152;-81
2023/04/21 03:29:59;;;;;;;23.47;13.00;;;10.50;1.00;;;;;;5011524;28;20554;-88
2023/04/21 03:32:27;;;;;;;16.57;12.37;;;10.50;1.00;;;;;;5017245;28;20482;-86
2023/04/21 03:34:54;;;;;;;15.33;12.13;;;10.50;1.00;;;;;;5014288;28;20468;-88
2023/04/21 03:37:21;;;;;;;17.53;13.50;;;10.50;1.00;;;;;;5015870;28;20451;-86
2023/04/21 03:39:51;;;;;;;17.10;13.47;;;10.50;1.00;;;;;;5003772;28;20458;-87
2023/04/21 03:42:20;;;;;;;17.53;13.87;;;10.50;1.00;;;;;;5009972;28;20989;-85
2023/04/21 03:44:48;;;;;;;15.77;13.67;;;10.50;1.00;;;;;;5015835;28;20563;-85
2023/04/21 03:47:16;;;;;;;17.10;15.00;;;10.40;1.00;;;;;;5020803;28;20459;-88
2023/04/21 03:49:43;;;;;;;20.33;14.20;;;10.40;1.00;;;;;;5017737;28;20419;-88
2023/04/21 03:52:13;;;;;;;20.20;14.30;;;10.40;1.00;;;;;;5021044;28;20442;-87
2023/04/21 03:54:40;;;;;;;16.00;13.50;;;10.40;1.00;;;;;;5014572;28;20435;-87
2023/04/21 03:57:07;;;;;;;21.77;14.43;;;10.30;1.00;;;;;;5013528;28;20493;-88
2023/04/21 03:59:35;;;;;;;18.57;14.50;;;10.40;1.00;;;;;;5007768;28;20467;-88
2023/04/21 04:02:04;;;;;;;18.53;15.37;;;10.30;1.00;;;;;;5014564;28;20524;-86
2023/04/21 04:04:32;;;;;;;19.40;14.87;;;10.30;1.00;;;;;;5009250;28;20578;-88
2023/04/21 04:07:00;;;;;;;18.00;14.83;;;10.30;1.00;;;;;;5017702;28;20478;-87
2023/04/21 04:09:27;;;;;;;17.33;13.70;;;10.30;1.00;;;;;;5020546;28;20954;-88
2023/04/21 04:11:54;;;;;;;19.80;14.63;;;10.30;1.00;;;;;;5013193;28;20458;-87
2023/04/21 04:14:21;;;;;;;16.00;14.23;;;10.20;1.00;;;;;;5017694;28;20454;-87
2023/04/21 04:16:49;;;;;;;20.00;15.07;;;10.30;1.00;;;;;;5020795;28;20466;-87
2023/04/21 04:19:16;;;;;;;16.03;13.80;;;10.20;1.00;;;;;;5015677;28;20852;-88
2023/04/21 04:21:43;;;;;;;18.50;13.97;;;10.30;1.00;;;;;;5019357;28;20466;-88
2023/04/21 04:24:13;;;;;;;16.50;14.40;;;10.30;1.00;;;;;;5018529;28;20428;-88
2023/04/21 04:26:39;;;;;;;18.37;13.47;;;10.30;1.00;;;;;;5017576;28;22591;-88
2023/04/21 04:29:09;;;;;;;20.30;13.43;;;10.30;1.00;;;;;;5014711;28;20414;-87
2023/04/21 04:31:36;;;;;;;20.40;15.27;;;10.30;1.00;;;;;;5015719;28;20455;-88
2023/04/21 04:34:05;;;;;;;17.30;14.73;;;10.40;1.00;;;;;;5016794;28;20434;-86
2023/04/21 04:36:32;;;;;;;20.10;14.10;;;10.40;1.00;;;;;;5018023;28;20454;-87
2023/04/21 04:38:59;;;;;;;17.00;14.50;;;10.40;1.00;;;;;;5015626;28;20452;-88
2023/04/21 04:41:26;;;;;;;21.03;15.00;;;10.40;1.00;;;;;;5017170;28;21267;-89
2023/04/21 04:43:55;;;;;;;19.23;15.30;;;10.40;1.00;;;;;;5011721;28;20473;-87
2023/04/21 04:46:23;;;;;;;17.77;14.63;;;10.40;1.00;;;;;;5024144;28;20458;-90
2023/04/21 04:48:50;;;;;;;17.23;15.07;;;10.40;1.00;;;;;;5018746;28;20481;-79
2023/04/21 04:51:18;;;;;;;16.60;14.37;;;10.40;1.00;;;;;;4996073;28;20969;-78
2023/04/21 04:53:45;;;;;;;20.17;15.10;;;10.40;1.00;;;;;;5009388;28;20506;-80
2023/04/21 04:56:12;;;;;;;17.40;15.60;;;10.50;1.00;;;;;;5009791;28;20452;-79
2023/04/21 04:58:40;;;;;;;19.53;14.67;;;10.50;1.00;;;;;;5005804;28;20414;-79
2023/04/21 05:01:14;;;;;;;17.63;14.67;;;10.60;1.00;;;;;;5002080;28;20553;-78
2023/04/21 05:03:41;;;;;;;17.10;14.17;;;10.60;1.00;;;;;;5005622;28;20497;-78
2023/04/21 05:06:08;;;;;;;16.60;14.30;;;10.70;1.00;;;;;;5006134;28;20487;-78
2023/04/21 05:08:38;;;;;;;21.20;14.50;;;10.60;1.00;;;;;;5007235;28;20652;-79
2023/04/21 05:11:05;;;;;;;16.90;14.60;;;10.70;1.00;;;;;;5007470;28;20558;-79
2023/04/21 05:13:33;;;;;;;18.37;16.03;;;10.70;1.00;;;;;;4991808;28;21118;-79
2023/04/21 05:16:01;;;;;;;20.00;14.47;;;10.80;1.00;;;;;;5005357;28;20466;-79
2023/04/21 05:18:28;;;;;;;17.80;14.40;;;10.80;1.00;;;;;;5007942;28;20466;-80
2023/04/21 05:20:55;;;;;;;18.33;14.53;;;10.90;1.00;;;;;;5007052;28;20570;-78
2023/04/21 05:23:25;;;;;;;18.73;15.27;;;10.90;1.00;;;;;;5011044;28;20642;-80
2023/04/21 05:25:55;;;;;;;19.17;14.10;;;10.90;1.00;;;;;;5015102;28;21272;-80
2023/04/21 05:28:23;;;;;;;18.17;14.67;;;11.00;1.00;;;;;;4992323;28;20498;-79
2023/04/21 05:30:51;;;;;;;20.10;14.80;;;11.10;1.00;;;;;;5013474;28;20482;-79
2023/04/21 05:33:20;;;;;;;17.53;14.43;;;11.10;1.00;;;;;;5017616;28;20546;-79
2023/04/21 05:35:47;;;;;;;21.57;15.43;;;11.20;1.00;;;;;;4998056;28;20529;-78
2023/04/21 05:38:16;;;;;;;17.20;14.17;;;11.30;1.00;;;;;;5015229;28;20527;-79
2023/04/21 05:41:02;;;;;;;16.90;13.90;;;11.40;1.00;;;;;;5002852;28;20428;-85
2023/04/21 05:43:34;;;;;;;17.40;14.67;;;11.50;1.00;;;;;;5023765;28;20419;-88
2023/04/21 05:46:09;;;;;;;20.73;15.23;;;11.60;1.00;;;;;;5025748;28;20467;-87
2023/04/21 05:48:36;;;;;;;16.73;14.93;;;11.60;1.00;;;;;;5023960;28;20432;-88
2023/04/21 05:51:09;;;;;;;20.60;14.90;;;11.80;1.00;;;;;;5017271;28;20444;-87
2023/04/21 05:53:36;;;;;;;16.67;13.27;;;11.90;1.00;;;;;;5024478;28;20482;-88
2023/04/21 05:56:06;;;;;;;17.60;14.53;;;12.00;1.00;;;;;;5023300;28;20464;-88
2023/04/21 05:58:34;;;;;;;17.40;13.90;;;12.10;1.00;;;;;;5026857;28;20562;-87
2023/04/21 06:01:02;;;;;;;16.10;13.93;;;12.20;1.00;;;;;;5026942;28;21360;-88
2023/04/21 06:03:31;;;;;;;18.30;14.80;;;12.30;1.00;;;;;;5024947;28;20448;-86
2023/04/21 06:06:00;;;;;;;18.50;14.20;;;12.40;1.00;;;;;;5013111;28;21271;-82
2023/04/21 06:08:27;;;;;;;17.07;13.20;;;12.50;1.00;;;;;;5018181;28;20974;-81
2023/04/21 06:10:54;;;;;;;21.40;15.07;;;12.50;1.00;;;;;;5027200;28;20464;-81
2023/04/21 06:13:23;;;;;;;16.87;13.87;;;12.50;1.00;;;;;;5001579;28;20522;-81
2023/04/21 06:15:50;;;;;;;17.03;14.40;;;12.60;1.00;;;;;;5016878;28;20510;-82
2023/04/21 06:18:18;;;;;;;20.37;14.90;;;12.70;1.00;;;;;;5020424;28;20440;-83
2023/04/21 06:20:51;;;;;;;18.53;14.93;;;12.80;1.00;;;;;;5015036;28;22457;-81
2023/04/21 06:23:18;;;;;;;19.70;14.93;;;12.90;1.00;;;;;;5013740;28;20511;-78
2023/04/21 06:25:46;;;;;;;15.03;13.07;;;12.90;1.00;;;;;;5016535;28;20465;-81
2023/04/21 06:28:13;;;;;;;22.10;16.10;;;13.10;1.00;;;;;;5014678;28;20446;-89
2023/04/21 06:30:44;;;;;;;21.77;14.70;;;13.20;1.00;;;;;;5007730;28;20520;-88
2023/04/21 06:33:11;;;;;;;19.37;14.53;;;13.40;1.00;;;;;;5017180;28;20531;-87
2023/04/21 06:35:39;;;;;;;17.90;16.00;;;13.40;1.00;;;;;;5015909;28;22729;-80
2023/04/21 06:38:09;;;;;;;16.10;13.90;;;13.40;1.00;;;;;;5018209;28;20765;-80
2023/04/21 06:40:36;;;;;;;15.97;14.20;;;13.50;1.00;;;;;;5020024;28;20560;-82
2023/04/21 06:43:03;;;;;;;17.73;13.67;;;13.50;1.00;;;;;;5018193;28;20900;-80
2023/04/21 06:45:30;;;;;;;17.47;14.30;;;13.50;1.00;;;;;;5021159;28;20496;-82
2023/04/21 06:47:59;;;;;;;15.70;13.63;;;13.60;1.00;;;;;;5012004;28;20465;-86
2023/04/21 06:50:27;;;;;;;17.07;14.60;;;13.70;1.00;;;;;;5007091;28;20524;-85
2023/04/21 06:52:55;;;;;;;15.43;12.60;;;13.80;1.00;;;;;;5018720;28;20458;-81
2023/04/21 06:55:23;;;;;;;21.17;15.00;;;13.80;1.00;;;;;;5018219;28;20465;-84
2023/04/21 06:57:50;;;;;;;16.67;13.97;;;13.90;1.00;;;;;;5019344;28;20549;-82
2023/04/21 07:00:22;;;;;;;14.10;12.60;;;13.90;1.00;;;;;;5023919;28;20549;-85
2023/04/21 07:02:59;;;;;;;19.87;14.43;;;13.90;1.00;;;;;;5023006;28;20485;-86
2023/04/21 07:05:34;;;;;;;19.23;13.80;;;14.00;1.00;;;;;;5018234;28;20524;-85
2023/04/21 07:08:02;;;;;;;19.90;14.60;;;13.90;1.00;;;;;;5023124;28;20439;-85
2023/04/21 07:10:30;;;;;;;15.50;13.40;;;14.00;1.00;;;;;;5026214;28;20473;-84
2023/04/21 07:12:58;;;;;;;17.10;14.00;;;14.20;1.00;;;;;;5020535;28;20443;-84
2023/04/21 07:15:25;;;;;;;23.40;15.57;;;14.30;1.00;;;;;;5011120;28;21450;-81
2023/04/21 07:17:52;;;;;;;17.77;14.43;;;14.40;1.00;;;;;;5010361;28;20465;-82
2023/04/21 07:20:19;;;;;;;17.90;15.43;;;14.60;1.00;;;;;;5011340;28;20546;-81
2023/04/21 07:22:47;;;;;;;16.47;13.30;;;14.70;1.00;;;;;;5014910;28;20477;-79
2023/04/21 07:25:15;;;;;;;19.73;13.47;;;14.70;1.00;;;;;;5002745;28;21558;-80
2023/04/21 07:27:42;;;;;;;20.50;15.80;;;14.80;1.00;;;;;;5010752;28;20523;-83
2023/04/21 07:30:11;;;;;;;17.20;13.60;;;14.90;1.00;;;;;;5013702;28;20470;-79
2023/04/21 07:32:38;;;;;;;15.87;14.17;;;15.10;1.00;;;;;;5012758;28;20478;-80
2023/04/21 07:35:08;;;;;;;16.03;13.60;;;15.10;1.00;;;;;;5009480;28;20957;-80
2023/04/21 07:37:37;;;;;;;16.77;14.20;;;15.20;1.00;;;;;;5012560;28;20455;-80
2023/04/21 07:40:06;;;;;;;17.83;13.57;;;15.30;1.00;;;;;;5015234;28;20501;-80
2023/04/21 07:42:34;;;;;;;16.47;13.60;;;15.50;1.00;;;;;;5015076;28;20437;-81
2023/04/21 07:45:01;;;;;;;19.10;14.60;;;15.60;1.00;;;;;;5013959;28;20966;-80
2023/04/21 07:47:31;;;;;;;17.37;14.57;;;15.80;1.00;;;;;;5016875;28;20466;-82
2023/04/21 07:49:58;;;;;;;17.53;14.43;;;16.00;1.00;;;;;;5016040;28;20475;-80
2023/04/21 07:52:25;;;;;;;19.07;13.93;;;16.30;1.00;;;;;;5019175;28;20471;-80
2023/04/21 07:54:52;;;;;;;17.60;14.40;;;16.20;1.00;;;;;;5016608;28;20470;-80
2023/04/21 07:57:20;;;;;;;17.03;13.90;;;16.50;1.00;;;;;;5018044;28;20473;-79
2023/04/21 07:59:49;;;;;;;19.10;13.87;;;16.60;1.00;;;;;;5013683;28;20466;-79
2023/04/21 08:02:16;;;;;;;17.63;13.73;;;16.70;1.00;;;;;;5010717;28;20433;-83
2023/04/21 08:04:43;;;;;;;16.70;14.90;;;16.80;1.00;;;;;;5016974;28;20499;-86
2023/04/21 08:07:12;;;;;;;16.60;13.80;;;16.90;1.00;;;;;;5022605;28;20948;-84
2023/04/21 08:09:39;;;;;;;16.57;14.60;;;17.10;1.00;;;;;;5021769;28;21330;-85
2023/04/21 08:12:06;;;;;;;18.20;15.80;;;17.10;1.00;;;;;;5022467;28;20470;-87
2023/04/21 08:14:34;;;;;;;19.07;13.10;;;17.00;1.00;;;;;;5011021;28;20492;-84
2023/04/21 08:17:02;;;;;;;16.63;13.10;;;17.00;1.00;;;;;;5018294;28;20479;-85
2023/04/21 08:19:29;;;;;;;15.57;13.40;;;17.10;1.00;;;;;;5007046;28;20459;-80
2023/04/21 08:21:56;;;;;;;16.37;13.23;;;17.20;1.00;;;;;;5020950;28;20465;-83
2023/04/21 08:24:26;;;;;;;19.97;13.03;;;17.40;1.00;;;;;;5020800;28;20498;-84
2023/04/21 08:26:52;;;;;;;14.33;12.50;;;17.50;1.00;;;;;;5019956;28;20471;-84
2023/04/21 08:29:20;;;;;;;17.00;14.13;;;17.60;1.00;;;;;;5019120;28;20571;-82
2023/04/21 08:31:48;;;;;;;19.87;13.40;;;17.70;1.00;;;;;;5020321;28;20505;-85
2023/04/21 08:34:15;;;;;;;15.00;12.00;;;17.80;1.00;;;;;;5015119;28;20598;-83
2023/04/21 08:36:43;;;;;;;15.43;13.17;;;17.80;1.00;;;;;;5004479;28;20451;-81
2023/04/21 08:39:15;;;;;;;19.00;13.43;;;17.80;1.00;;;;;;5016160;28;21464;-82
2023/04/21 08:41:42;;;;;;;19.47;13.97;;;18.00;1.00;;;;;;5014099;28;20473;-83
2023/04/21 08:44:11;;;;;;;15.10;13.27;;;18.10;1.00;;;;;;5013523;28;20497;-82
2023/04/21 08:46:38;;;;;;;15.40;11.83;;;18.30;1.00;;;;;;5016818;28;20492;-82
2023/04/21 08:49:09;;;;;;;16.47;12.43;;;18.50;1.00;;;;;;5003630;28;20905;-82
2023/04/21 08:51:36;;;;;;;16.93;12.10;;;18.60;1.00;;;;;;4998832;28;20514;-83
2023/04/21 08:54:04;;;;;;;16.63;12.90;;;18.80;1.00;;;;;;4999571;28;20471;-81
2023/04/21 08:56:31;;;;;;;14.63;12.90;;;18.60;1.00;;;;;;5017320;28;20851;-84
2023/04/21 08:58:57;;;;;;;21.20;12.60;;;18.80;1.00;;;;;;5008812;28;20533;-79
2023/04/21 09:01:24;;;;;;;13.87;12.33;;;19.10;1.00;;;;;;5016149;28;20453;-83
2023/04/21 09:03:51;;;;;;;17.90;12.57;;;19.30;1.00;;;;;;5013482;28;20477;-83
2023/04/21 09:06:20;;;;;;;16.93;12.23;;;19.50;1.00;;;;;;5014742;28;20483;-82
2023/04/21 09:08:54;;;;;;;17.37;12.10;;;19.80;1.00;;;;;;5016231;28;20488;-81
2023/04/21 09:11:22;;;;;;;14.63;11.40;;;20.00;1.00;;;;;;5021196;28;20898;-82
2023/04/21 09:13:49;;;;;;;15.67;12.17;;;20.00;1.00;;;;;;5021052;28;21330;-81
2023/04/21 09:16:19;;;;;;;15.03;11.70;;;19.90;1.00;;;;;;5016791;28;20450;-82
2023/04/21 09:18:46;;;;;;;16.00;11.50;;;20.00;1.00;;;;;;4998439;28;20489;-80
2023/04/21 09:21:16;;;;;;;17.87;12.77;;;20.10;1.00;;;;;;5016962;28;20512;-83
2023/04/21 09:23:47;;;;;;;16.67;13.17;;;20.20;1.00;;;;;;5020354;28;20464;-82
2023/04/21 09:26:15;;;;;;;16.87;11.33;;;20.30;1.00;;;;;;5015631;28;20541;-81
2023/04/21 09:28:43;;;;;;;14.83;12.10;;;20.60;1.00;;;;;;5015403;28;20485;-82
2023/04/21 09:31:16;;;;;;;13.67;11.30;;;21.50;1.00;;;;;;5016573;28;20498;-81
2023/04/21 09:33:47;;;;;;;12.23;10.87;;;22.80;1.00;;;;;;5021403;28;20429;-80
2023/04/21 09:36:21;;;;;;;13.00;10.87;;;24.10;1.00;;;;;;5019013;28;20446;-80
2023/04/21 09:38:57;;;;;;;14.70;11.70;;;25.20;1.00;;;;;;5016448;28;20488;-80
2023/04/21 09:41:24;;;;;;;14.57;11.83;;;26.10;1.00;;;;;;5017987;28;20451;-80
2023/04/21 09:43:51;;;;;;;14.87;10.90;;;26.60;1.00;;;;;;5019001;28;20496;-80
2023/04/21 09:46:19;;;;;;;14.03;11.20;;;26.90;1.00;;;;;;5014967;28;21194;-80
2023/04/21 09:48:47;;;;;;;12.80;10.40;;;27.80;1.00;;;;;;5014541;28;20446;-80
2023/04/21 09:51:16;;;;;;;12.27;10.20;;;28.80;1.00;;;;;;5012179;28;20466;-80
2023/04/21 09:53:45;;;;;;;12.70;11.40;;;29.00;1.00;;;;;;5012930;28;20489;-79
2023/04/21 09:56:16;;;;;;;13.73;12.20;;;28.90;1.00;;;;;;5015556;28;20442;-80
2023/04/21 09:58:47;;;;;;;12.37;10.23;;;29.00;1.00;;;;;;5016384;28;20473;-82
2023/04/21 10:01:15;;;;;;;11.37;10.17;;;29.40;1.00;;;;;;5015828;28;20464;-83
2023/04/21 10:03:45;;;;;;;14.10;12.13;;;29.60;1.00;;;;;;5018329;28;20438;-83
2023/04/21 10:06:12;;;;;;;17.40;11.43;;;30.20;1.00;;;;;;5020914;28;20436;-82
2023/04/21 10:08:47;;;;;;;12.80;9.90;;;29.80;1.00;;;;;;5016128;28;20528;-83
2023/04/21 10:11:16;;;;;;;10.93;9.80;;;29.30;1.00;;;;;;5019723;28;20504;-83
2023/04/21 10:13:44;;;;;;;15.43;11.00;;;29.10;1.00;;;;;;5012968;28;20466;-82
2023/04/21 10:16:11;;;;;;;15.40;10.70;;;29.20;1.00;;;;;;5009377;28;20458;-82
2023/04/21 10:18:44;;;;;;;12.00;9.60;;;29.40;1.00;;;;;;5008394;28;20474;-81
2023/04/21 10:21:12;;;;;;;10.73;9.63;;;30.30;1.00;;;;;;4993460;28;20468;-79
2023/04/21 10:23:43;;;;;;;12.03;9.80;;;30.20;1.00;;;;;;5011823;28;20488;-78
2023/04/21 10:26:13;;;;;;;14.97;9.90;;;30.40;1.00;;;;;;5009529;28;20482;-80
2023/04/21 10:28:47;;;;;;;11.90;9.97;;;30.60;1.00;;;;;;5015244;28;20488;-80
2023/04/21 10:31:21;;;;;;;17.20;10.70;;;30.40;1.00;;;;;;5005683;28;20542;-77
2023/04/21 10:34:14;;;;;;;11.10;9.60;;;30.80;1.00;;;;;;5008812;28;20462;-80
2023/04/21 10:36:53;;;;;;;11.30;9.50;;;30.40;1.00;;;;;;5011243;28;20528;-79
2023/04/21 10:39:28;;;;;;;11.30;9.47;;;29.90;1.00;;;;;;4990571;28;20988;-79
2023/04/21 10:41:57;;;;;;;11.80;9.07;;;30.20;1.00;;;;;;5009902;28;20536;-79
2023/04/21 10:44:29;;;;;;;14.50;10.20;;;30.80;1.00;;;;;;5009158;28;20462;-79
2023/04/21 10:47:00;;;;;;;11.03;9.93;;;30.70;1.00;;;;;;5013067;28;20457;-80
2023/04/21 10:49:29;;;;;;;14.93;9.70;;;30.50;1.00;;;;;;5015676;28;20442;-81
2023/04/21 10:52:07;;;;;;;11.60;9.10;;;30.30;1.00;;;;;;5015888;28;20462;-80
2023/04/21 10:54:42;;;;;;;14.77;10.10;;;30.30;1.00;;;;;;5013826;28;20470;-81
2023/04/21 10:57:11;;;;;;;11.37;9.63;;;31.10;1.00;;;;;;5016139;28;20468;-81
2023/04/21 10:59:39;;;;;;;13.33;9.17;;;31.00;1.00;;;;;;5011226;28;20529;-78
2023/04/21 11:02:07;;;;;;;11.10;9.80;;;30.60;1.00;;;;;;5004989;28;20450;-82
2023/04/21 11:04:34;;;;;;;10.67;9.57;;;31.40;1.00;;;;;;5008494;28;20466;-80
2023/04/21 11:07:10;;;;;;;11.20;9.30;;;30.90;1.00;;;;;;5011100;28;20498;-84
2023/04/21 11:09:39;;;;;;;10.40;8.87;;;31.50;1.00;;;;;;5013824;28;20461;-80
2023/04/21 11:12:08;;;;;;;11.10;9.30;;;30.50;1.00;;;;;;5010269;28;20579;-80
2023/04/21 11:14:42;;;;;;;12.20;10.23;;;31.00;1.00;;;;;;5013025;28;20478;-81
2023/04/21 11:17:13;;;;;;;11.20;9.70;;;31.90;1.00;;;;;;5009215;28;20470;-82
2023/04/21 11:19:41;;;;;;;10.47;9.37;;;32.70;1.00;;;;;;5006831;28;20950;-80
2023/04/21 11:22:09;;;;;;;11.80;10.73;;;33.40;1.00;;;;;;5011542;28;20455;-82
2023/04/21 11:24:36;;;;;;;13.37;9.33;;;33.30;1.00;;;;;;5007892;28;20482;-80
2023/04/21 11:27:07;;;;;;;10.47;9.50;;;32.60;1.00;;;;;;5009259;28;20570;-82
2023/04/21 11:29:35;;;;;;;10.67;9.57;;;32.20;1.00;;;;;;5006370;28;20606;-80
2023/04/21 11:32:08;;;;;;;11.00;9.87;;;32.20;1.00;;;;;;5009622;28;21686;-80
2023/04/21 11:34:37;;;;;;;9.87;8.87;;;32.60;1.00;;;;;;5012302;28;20546;-81
2023/04/21 11:37:05;;;;;;;10.43;9.43;;;33.00;1.00;;;;;;5009656;28;20612;-82
2023/04/21 11:39:33;;;;;;;11.20;8.87;;;33.70;1.00;;;;;;5013095;28;20485;-79
2023/04/21 11:42:00;;;;;;;11.80;10.60;;;32.20;1.00;;;;;;5011538;28;20426;-82
2023/04/21 11:44:34;;;;;;;10.80;9.70;;;31.90;1.00;;;;;;5014028;28;20472;-79
2023/04/21 11:47:12;;;;;;;10.73;9.63;;;32.40;1.00;;;;;;5016328;28;21027;-80
2023/04/21 11:49:45;;;;;;;10.77;9.77;;;33.70;1.00;;;;;;5017956;28;20450;-80
2023/04/21 11:52:13;;;;;;;11.13;9.17;;;34.50;1.00;;;;;;5012533;28;20442;-81
2023/04/21 11:54:40;;;;;;;9.80;8.77;;;33.90;1.00;;;;;;5013069;28;20433;-80
2023/04/21 11:57:09;;;;;;;9.97;8.97;;;33.80;1.00;;;;;;5015863;28;20513;-82
2023/04/21 11:59:36;;;;;;;10.00;9.00;;;34.40;1.00;;;;;;5016756;28;20657;-81
2023/04/21 12:02:03;;;;;;;10.23;9.00;;;35.00;1.00;;;;;;5013201;28;20462;-80
2023/04/21 12:04:31;;;;;;;11.93;8.50;;;35.50;1.00;;;;;;5014692;28;20501;-82
2023/04/21 12:07:00;;;;;;;9.77;8.70;;;35.70;1.00;;;;;;5018852;28;21453;-80
2023/04/21 12:09:29;;;;;;;10.00;9.10;;;35.20;1.00;;;;;;5012990;28;20474;-80
2023/04/21 12:11:57;;;;;;;14.10;12.80;;;35.30;1.00;;;;;;5014016;28;20461;-79
2023/04/21 12:14:27;;;;;;;14.10;9.83;;;35.00;1.00;;;;;;5012567;28;20462;-83
2023/04/21 12:16:56;;;;;;;10.07;9.10;;;35.00;1.00;;;;;;5013812;28;20458;-79
2023/04/21 12:19:25;;;;;;;11.10;9.97;;;35.20;1.00;;;;;;5017580;28;20446;-80
2023/04/21 12:21:56;;;;;;;9.80;8.47;;;34.80;1.00;;;;;;5016375;28;20863;-80
2023/04/21 12:24:24;;;;;;;10.13;9.13;;;33.90;1.00;;;;;;5014770;28;20821;-81
2023/04/21 12:26:51;;;;;;;11.00;9.50;;;33.10;1.00;;;;;;5014892;28;20491;-81
2023/04/21 12:29:18;;;;;;;10.47;8.53;;;32.70;1.00;;;;;;5015702;28;20465;-80
2023/04/21 12:31:45;;;;;;;12.00;10.90;;;32.80;1.00;;;;;;5014788;28;20580;-81
2023/04/21 12:34:12;;;;;;;9.00;8.10;;;33.40;1.00;;;;;;5011419;28;20438;-81
2023/04/21 12:36:39;;;;;;;10.93;9.00;;;34.10;1.00;;;;;;5011166;28;20465;-81
2023/04/21 12:39:08;;;;;;;12.63;11.53;;;33.80;1.00;;;;;;5013995;28;20482;-81
2023/04/21 12:41:35;;;;;;;9.33;8.33;;;34.30;1.00;;;;;;5015437;28;20450;-81
2023/04/21 12:44:03;;;;;;;9.67;8.20;;;34.70;1.00;;;;;;5013862;28;20907;-81
2023/04/21 12:46:30;;;;;;;12.03;9.77;;;35.40;1.00;;;;;;5012249;28;20450;-80
2023/04/21 12:48:59;;;;;;;9.07;7.90;;;36.10;1.00;;;;;;5013205;28;20489;-81